CST,Max TemperatureF,Mean TemperatureF,Min TemperatureF,Max Dew PointF,MeanDew PointF,Min DewpointF,Max Humidity, Mean Humidity, Min Humidity, Max Sea Level PressureIn, Mean Sea Level PressureIn, Min Sea Level PressureIn, Max VisibilityMiles, Mean VisibilityMiles, Min VisibilityMiles, Max Wind SpeedMPH, Mean Wind SpeedMPH, Max Gust SpeedMPH,PrecipitationIn, CloudCover, Events, WindDirDegrees
2014-2-1,15,3,-9,9,2,-15,85,74,67,30.23,30.02,29.83,10,10,2,23,12,31,0.00,2,,295
2014-2-2,17,2,-14,5,-5,-18,85,73,53,30.24,30.19,30.11,10,10,10,13,6,,0.00,0,,204
2014-2-3,17,5,-7,7,-2,-13,85,76,58,30.37,30.24,30.11,10,10,0,10,2,,0.00,1,,305
2014-2-4,6,0,-5,1,-8,-11,85,67,56,30.58,30.50,30.38,10,10,5,21,14,24,0.00,1,,346
2014-2-5,5,-4,-14,-4,-9,-20,84,73,61,30.61,30.57,30.52,10,9,1,20,11,21,0.00,2,,317
2014-2-6,6,-4,-14,-2,-11,-20,84,72,61,30.52,30.36,30.20,10,10,10,20,10,24,0.00,2,,261
2014-2-7,12,2,-7,-2,-8,-17,92,66,52,30.20,30.12,30.07,10,10,10,15,10,,0.00,0,,222
2014-2-8,17,2,-14,9,-5,-18,85,78,67,30.26,30.11,30.04,10,9,2,18,4,22,0.00,4,Snow,340
2014-2-9,6,-4,-14,-6,-12,-20,84,71,56,30.45,30.36,30.26,10,10,10,20,10,22,0.00,0,,311
2014-2-10,5,-8,-20,-6,-15,-26,85,74,60,30.50,30.46,30.42,10,10,7,8,3,,0.00,0,,279
2014-2-11,21,4,-14,18,2,-20,86,78,67,30.42,30.12,29.92,10,10,3,23,9,29,0.00,4,,157
2014-2-12,23,12,0,19,4,-6,86,75,57,30.16,29.98,29.56,10,10,7,28,10,32,0.00,2,,337
2014-2-13,35,19,3,27,10,-2,86,79,67,29.83,29.63,29.39,10,6,0,41,19,48,0.00,5,Snow,303
2014-2-14,12,4,-5,3,-3,-9,92,77,67,30.09,29.99,29.80,10,10,10,18,12,17,0.00,1,,327
2014-2-15,30,15,0,21,9,-4,92,77,64,30.15,29.86,29.68,10,10,4,24,11,30,0.01,4,Snow,89
2014-2-16,21,10,0,16,6,-4,86,79,68,30.20,30.03,29.76,10,9,2,25,12,33,0.00,5,Snow,120
2014-2-17,37,29,21,28,22,16,93,81,65,29.76,29.69,29.64,10,7,0,16,10,23,0.01,3,Snow,220
2014-2-18,42,25,8,30,22,7,100,80,57,29.80,29.63,29.51,10,10,7,14,6,,0.32,0,,265
2014-2-19,42,27,12,30,25,9,100,78,57,29.79,29.67,29.50,10,9,0,18,8,26,0.33,1,Fog,181
2014-2-20,39,26,12,30,24,7,93,78,65,29.63,29.57,29.50,10,8,0,32,13,41,0.00,4,Snow,306
2014-2-21,23,14,6,12,7,1,79,73,63,29.85,29.68,29.58,10,10,7,31,23,38,0.00,2,,305
2014-2-22,21,12,3,9,4,-2,85,70,58,30.19,30.02,29.86,10,10,10,23,13,26,0.00,0,,302
2014-2-23,23,13,3,9,3,-2,85,71,54,30.34,30.27,30.19,10,10,10,22,12,25,0.00,0,,302
2014-2-24,10,5,0,3,-2,-8,85,74,61,30.40,30.36,30.32,10,9,2,15,8,22,0.00,2,Snow,325
2014-2-25,6,-2,-9,-4,-9,-15,84,71,56,30.43,30.38,30.32,10,10,2,25,11,31,0.00,0,,299
2014-2-26,24,8,-7,9,-4,-15,84,66,49,30.38,29.98,29.70,10,10,3,37,16,43,0.00,1,Snow,284
2014-2-27,3,-6,-14,-9,-15,-24,71,59,46,30.21,30.11,29.92,10,10,10,21,10,28,0.00,0,,11
2014-2-28,21,8,-5,12,-2,-11,77,68,58,30.28,29.94,29.79,10,10,4,29,13,33,0.00,3,,60